Time;durP1;ratioP1;P1;durP2;ratioP2;P2;SDS_P1;SDS_P2;PMS_P1;PMS_P2;Temp;Humidity;BMP_temperature;BMP_pressure;BME280_temperature;BME280_humidity;BME280_pressure;Samples;Min_cycle;Max_cycle;Signal;HPM_P1;HPM_P2
2021/10/02 00:37:41;;;;;;;4.82;2.55;;;;;;;13.73;66.41;98851.91;2619908;54;20530;-65
2021/10/02 00:45:36;;;;;;;6.22;2.63;;;;;;;13.72;66.72;98852.94;2619934;54;20053;-67
2021/10/02 00:48:06;;;;;;;5.30;2.53;;;;;;;13.68;66.90;98862.34;2618656;54;20573;-68
2021/10/02 00:50:35;;;;;;;5.13;2.40;;;;;;;13.66;66.94;98859.06;2618375;54;20033;-66
2021/10/02 00:53:08;;;;;;;5.30;2.40;;;;;;;13.62;66.64;98856.03;2617429;51;20050;-68
2021/10/02 00:55:37;;;;;;;7.07;2.70;;;;;;;13.60;66.91;98858.09;2617990;54;20037;-67
2021/10/02 00:58:07;;;;;;;6.55;1.90;;;;;;;13.60;67.09;98866.06;2617324;47;20034;-66
2021/10/02 01:00:37;;;;;;;7.45;2.10;;;;;;;13.61;67.47;98864.22;2618349;54;20026;-68
2021/10/02 01:03:15;;;;;;;4.00;2.08;;;;;;;13.56;67.26;98854.22;2618276;54;20042;-67
2021/10/02 01:05:57;;;;;;;3.58;2.05;;;;;;;13.55;67.38;98849.09;2621995;54;20042;-67
2021/10/02 01:08:40;;;;;;;3.97;2.28;;;;;;;13.59;67.64;98853.81;2623176;54;20033;-68
2021/10/02 01:11:21;;;;;;;;;;;;;;;13.57;67.48;98855.84;2622699;54;20034;-66
2021/10/02 01:14:00;;;;;;;5.78;2.10;;;;;;;13.59;67.44;98853.81;2618878;39;20333;-68
2021/10/02 01:16:34;;;;;;;3.10;2.33;;;;;;;13.58;67.45;98848.69;2618953;39;20580;-67
2021/10/02 01:19:29;;;;;;;4.40;2.10;;;;;;;13.56;67.57;98848.09;2618247;54;20033;-67
2021/10/02 01:22:11;;;;;;;4.78;2.60;;;;;;;13.54;68.21;98850.13;2618069;54;20030;-67
2021/10/02 01:25:03;;;;;;;5.07;2.05;;;;;;;13.58;68.31;98840.72;2617306;47;20030;-66
2021/10/02 01:27:48;;;;;;;3.60;2.22;;;;;;;13.57;68.44;98844.41;2617655;47;20034;-67
2021/10/02 01:30:22;;;;;;;5.35;2.15;;;;;;;13.56;68.76;98842.78;2617376;47;20553;-67
2021/10/02 01:33:00;;;;;;;3.20;2.00;;;;;;;13.52;68.41;98845.03;2618093;54;20669;-67
2021/10/02 01:35:39;;;;;;;5.47;2.22;;;;;;;13.52;68.58;98826.47;2617203;54;20030;-66
2021/10/02 01:49:07;;;;;;;3.15;2.08;;;;;;;13.49;68.92;98818.09;2617891;54;20034;-68
2021/10/02 01:51:39;;;;;;;3.97;2.67;;;;;;;13.41;69.08;98808.50;2617981;54;20605;-67
2021/10/02 01:54:09;;;;;;;5.30;2.30;;;;;;;13.39;69.21;98807.94;2618399;39;20438;-68
2021/10/02 01:56:39;;;;;;;6.05;2.80;;;;;;;13.32;69.42;98805.28;2617296;54;20045;-67
2021/10/02 01:59:13;;;;;;;6.13;2.50;;;;;;;13.30;69.91;98795.88;2617784;54;20045;-67
2021/10/02 02:01:46;;;;;;;4.65;2.63;;;;;;;13.26;70.00;98792.03;2617945;54;20038;-66
2021/10/02 02:04:17;;;;;;;5.07;2.45;;;;;;;13.28;70.02;98795.31;2617181;54;20029;-66
2021/10/02 02:06:50;;;;;;;5.97;2.83;;;;;;;13.27;70.31;98788.38;2618013;54;20030;-68
2021/10/02 02:09:21;;;;;;;5.07;2.45;;;;;;;13.26;70.32;98794.69;2618082;54;20037;-66
2021/10/02 02:11:51;;;;;;;6.22;2.50;;;;;;;13.25;70.33;98793.88;2617556;54;20046;-67
2021/10/02 02:14:24;;;;;;;3.75;2.35;;;;;;;13.28;70.10;98787.34;2617061;54;20026;-67
2021/10/02 02:16:55;;;;;;;4.80;2.85;;;;;;;13.29;70.17;98795.06;2618048;54;20023;-67
2021/10/02 02:19:27;;;;;;;5.78;2.20;;;;;;;13.30;70.43;98799.34;2617468;47;20037;-66
2021/10/02 02:21:56;;;;;;;5.88;2.00;;;;;;;13.32;70.06;98807.13;2617979;54;20031;-66
2021/10/02 02:24:28;;;;;;;6.05;2.25;;;;;;;13.33;70.40;98808.75;2617633;54;20034;-66
2021/10/02 02:26:59;;;;;;;5.50;2.40;;;;;;;13.35;70.26;98798.75;2618582;54;20038;-68
2021/10/02 02:29:33;;;;;;;6.55;2.45;;;;;;;13.32;70.00;98801.81;2621614;47;20022;-67
2021/10/02 02:32:02;;;;;;;;;;;;;;;13.30;69.97;98796.69;2619844;47;20056;-68
2021/10/02 02:34:32;;;;;;;4.10;1.98;;;;;;;13.32;70.17;98799.97;2617722;54;19998;-68
2021/10/02 02:37:03;;;;;;;8.57;2.33;;;;;;;13.35;69.90;98798.75;2622537;54;20038;-67
2021/10/02 02:39:33;;;;;;;5.25;2.38;;;;;;;13.34;70.10;98803.22;2621927;47;20050;-67
2021/10/02 02:42:04;;;;;;;3.25;2.08;;;;;;;13.37;70.20;98802.00;2622885;54;20030;-67
2021/10/02 02:44:36;;;;;;;3.58;2.20;;;;;;;13.41;70.16;98789.94;2621873;47;20025;-66
2021/10/02 02:47:14;;;;;;;6.00;2.30;;;;;;;13.43;69.81;98798.53;2622394;54;20036;-67
2021/10/02 02:49:53;;;;;;;6.32;2.10;;;;;;;13.43;70.10;98808.28;2622541;47;20580;-68
2021/10/02 02:52:26;;;;;;;4.80;1.90;;;;;;;13.40;69.67;98798.13;2623239;54;20054;-66
2021/10/02 02:55:03;;;;;;;3.83;2.10;;;;;;;13.40;70.04;98800.78;2622321;54;20026;-67
2021/10/02 02:57:40;;;;;;;3.75;1.90;;;;;;;13.46;69.80;98806.03;2622456;47;20031;-68
2021/10/02 03:00:15;;;;;;;3.55;2.10;;;;;;;13.49;69.71;98799.50;2622850;54;20565;-68
2021/10/02 03:02:55;;;;;;;3.60;1.88;;;;;;;13.48;69.61;98792.56;2619947;39;20457;-66
2021/10/02 03:05:27;;;;;;;3.15;1.70;;;;;;;13.48;70.16;98797.88;2618209;54;20043;-68
2021/10/02 03:08:00;;;;;;;4.05;1.80;;;;;;;13.49;70.45;98799.50;2618137;54;20030;-67
2021/10/02 03:10:31;;;;;;;4.93;1.80;;;;;;;13.49;69.97;98794.19;2617850;54;20034;-67
2021/10/02 03:13:05;;;;;;;3.70;1.92;;;;;;;13.50;70.13;98795.81;2617693;54;20030;-67
2021/10/02 03:15:39;;;;;;;3.55;1.70;;;;;;;13.53;70.25;98795.41;2616985;47;20022;-67
2021/10/02 03:18:13;;;;;;;3.03;1.70;;;;;;;13.55;69.76;98794.16;2618425;39;20418;-67
2021/10/02 03:20:43;;;;;;;2.40;1.52;;;;;;;13.56;70.06;98790.47;2618053;39;20426;-67
2021/10/02 03:23:14;;;;;;;2.90;1.65;;;;;;;13.56;70.37;98789.66;2617076;47;20550;-68
2021/10/02 03:25:44;;;;;;;7.90;2.42;;;;;;;13.60;70.42;98788.22;2617623;54;20034;-68
2021/10/02 03:28:14;;;;;;;3.50;1.88;;;;;;;13.64;69.89;98786.78;2617561;54;20053;-68
2021/10/02 03:30:46;;;;;;;3.50;1.80;;;;;;;13.65;70.29;98793.69;2617005;54;20038;-67
2021/10/02 03:33:17;;;;;;;5.20;1.70;;;;;;;13.67;70.17;98791.63;2617537;54;20038;-67
2021/10/02 03:35:49;;;;;;;2.10;1.52;;;;;;;13.71;70.31;98802.66;2617854;39;20434;-67
2021/10/02 03:38:19;;;;;;;5.20;2.10;;;;;;;13.69;70.09;98802.06;2616954;47;20541;-66
2021/10/02 03:40:50;;;;;;;5.03;1.80;;;;;;;13.67;70.06;98804.91;2617526;54;20026;-68
2021/10/02 03:43:20;;;;;;;3.20;1.80;;;;;;;13.68;69.70;98797.78;2616848;47;20042;-67
2021/10/02 03:45:53;;;;;;;2.80;1.98;;;;;;;13.71;69.56;98784.06;2617267;54;20027;-69
2021/10/02 03:48:22;;;;;;;2.95;1.70;;;;;;;13.72;69.58;98781.22;2617492;54;20038;-68
2021/10/02 03:50:52;;;;;;;5.80;1.80;;;;;;;13.72;69.70;98781.22;2617451;54;20042;-68
2021/10/02 03:53:22;;;;;;;3.22;1.95;;;;;;;13.74;69.53;98789.75;2617513;54;20057;-68
2021/10/02 03:55:52;;;;;;;4.20;2.03;;;;;;;13.76;69.24;98782.41;2616572;47;20034;-66
2021/10/02 03:58:22;;;;;;;4.70;2.00;;;;;;;13.75;69.02;98780.75;2616929;47;20547;-67
2021/10/02 04:00:55;;;;;;;3.78;1.90;;;;;;;13.75;69.77;98779.94;2617203;39;20430;-67
2021/10/02 04:03:25;;;;;;;3.78;1.75;;;;;;;13.75;69.66;98775.44;2617467;54;20077;-66
2021/10/02 04:05:54;;;;;;;4.53;1.80;;;;;;;13.78;69.44;98772.38;2617384;54;20035;-67
2021/10/02 04:08:24;;;;;;;3.97;2.00;;;;;;;13.77;69.28;98772.59;2617149;47;20031;-67
2021/10/02 04:10:54;;;;;;;4.80;2.08;;;;;;;13.79;69.42;98778.50;2617423;54;20027;-67
2021/10/02 04:13:23;;;;;;;3.60;1.58;;;;;;;13.82;69.30;98772.75;2617891;54;20031;-66
2021/10/02 04:15:56;;;;;;;3.50;1.73;;;;;;;13.81;68.88;98757.84;2618366;31;20484;-67
2021/10/02 04:18:26;;;;;;;5.03;1.60;;;;;;;13.77;68.56;98752.16;2618427;54;20027;-66
2021/10/02 04:20:55;;;;;;;3.20;1.73;;;;;;;13.77;68.19;98744.19;2618844;39;20430;-67
2021/10/02 04:23:25;;;;;;;2.88;1.77;;;;;;;13.76;68.05;98737.25;2618445;54;20093;-67
2021/10/02 04:25:55;;;;;;;4.68;1.58;;;;;;;13.79;67.71;98739.44;2619025;54;20041;-66
2021/10/02 04:28:24;;;;;;;3.75;1.80;;;;;;;13.78;67.48;98747.66;2618033;47;20027;-66
2021/10/02 04:30:57;;;;;;;4.03;1.88;;;;;;;13.80;67.22;98741.09;2620094;46;20482;-67
2021/10/02 04:33:26;;;;;;;3.25;1.60;;;;;;;13.84;67.08;98736.97;2622558;39;20498;-68
2021/10/02 04:35:56;;;;;;;2.65;1.88;;;;;;;13.86;67.04;98739.41;2622079;54;20554;-67
2021/10/02 04:38:26;;;;;;;3.08;1.50;;;;;;;13.86;66.75;98734.91;2620956;54;20034;-67
2021/10/02 04:40:56;;;;;;;3.30;1.70;;;;;;;13.87;66.93;98735.72;2621185;54;20038;-68
2021/10/02 04:43:26;;;;;;;4.40;1.92;;;;;;;13.91;67.06;98733.44;2620958;54;20038;-68
2021/10/02 04:45:59;;;;;;;3.88;2.15;;;;;;;13.91;66.82;98738.75;2620906;54;20030;-68
2021/10/02 04:48:29;;;;;;;5.15;2.55;;;;;;;13.93;66.56;98736.72;2621652;51;20035;-67
2021/10/02 04:50:59;;;;;;;2.70;1.95;;;;;;;13.91;66.81;98736.09;2621623;54;20031;-67
2021/10/02 04:53:29;;;;;;;2.95;1.65;;;;;;;13.90;66.52;98729.97;2621520;54;20019;-71
2021/10/02 04:56:00;;;;;;;2.47;1.92;;;;;;;13.89;66.55;98731.03;2620235;54;20038;-67
2021/10/02 04:58:30;;;;;;;4.20;2.13;;;;;;;13.87;66.01;98736.53;2621049;54;20027;-68
2021/10/02 05:01:03;;;;;;;5.88;2.20;;;;;;;13.84;65.74;98736.97;2621200;54;20026;-67
2021/10/02 05:03:37;;;;;;;3.97;2.28;;;;;;;13.85;65.83;98732.47;2620630;54;20038;-67
2021/10/02 05:06:08;;;;;;;4.07;1.83;;;;;;;13.87;66.23;98738.38;2621364;54;20046;-67
2021/10/02 05:08:38;;;;;;;2.10;1.90;;;;;;;13.85;65.89;98730.63;2621402;54;20030;-68
2021/10/02 05:11:09;;;;;;;3.38;1.70;;;;;;;13.87;66.00;98728.56;2621719;54;20042;-68
2021/10/02 05:13:39;;;;;;;5.10;1.83;;;;;;;13.87;66.04;98727.75;2621811;54;20041;-67
2021/10/02 05:16:11;;;;;;;5.47;1.92;;;;;;;13.91;65.57;98733.44;2620654;54;20033;-73
2021/10/02 05:18:41;;;;;;;4.10;1.98;;;;;;;13.89;65.57;98728.38;2620115;47;20041;-67
2021/10/02 05:21:11;;;;;;;3.13;2.10;;;;;;;13.93;65.83;98731.41;2622015;54;20043;-68
2021/10/02 05:23:41;;;;;;;2.35;1.73;;;;;;;13.94;65.50;98720.56;2621936;54;20034;-67
2021/10/02 05:26:11;;;;;;;5.78;2.00;;;;;;;13.94;65.10;98725.88;2621487;54;20053;-68
2021/10/02 05:28:41;;;;;;;4.05;1.98;;;;;;;13.94;65.33;98717.09;2621581;54;20034;-68
2021/10/02 05:31:14;;;;;;;2.83;1.95;;;;;;;13.95;65.01;98713.38;2621483;47;20034;-68
2021/10/02 05:33:44;;;;;;;4.95;2.33;;;;;;;13.92;65.42;98719.97;2622113;54;20034;-69
2021/10/02 05:36:13;;;;;;;2.92;2.00;;;;;;;13.86;65.13;98734.09;2622414;54;20035;-69
2021/10/02 05:38:43;;;;;;;2.90;1.60;;;;;;;13.78;65.57;98729.84;2622336;39;20486;-68
2021/10/02 05:41:15;;;;;;;3.58;1.77;;;;;;;13.75;65.60;98729.47;2621793;31;20516;-67
2021/10/02 05:43:44;;;;;;;3.33;1.70;;;;;;;13.70;66.18;98721.34;2619818;54;20027;-67
2021/10/02 05:46:16;;;;;;;3.40;2.13;;;;;;;13.69;65.92;98717.88;2620145;47;20027;-67
2021/10/02 05:48:46;;;;;;;3.40;2.30;;;;;;;13.65;66.37;98708.69;2620172;47;20035;-69
2021/10/02 05:51:16;;;;;;;6.40;2.78;;;;;;;13.67;66.48;98724.41;2620259;54;20562;-67
2021/10/02 05:53:46;;;;;;;10.25;2.50;;;;;;;13.62;66.28;98728.53;2621993;54;20045;-69
2021/10/02 05:56:15;;;;;;;5.28;2.28;;;;;;;13.61;66.48;98731.41;2621384;54;20034;-69
2021/10/02 05:58:47;;;;;;;3.30;1.90;;;;;;;13.62;66.60;98712.59;2618319;54;20027;-69
2021/10/02 06:01:19;;;;;;;4.20;2.38;;;;;;;13.66;66.51;98723.59;2618356;54;20030;-69
2021/10/02 06:03:49;;;;;;;3.58;2.10;;;;;;;13.70;66.36;98726.66;2617997;54;20033;-68
2021/10/02 06:06:19;;;;;;;11.10;3.17;;;;;;;13.70;65.91;98731.97;2618499;54;20038;-70
2021/10/02 06:08:48;;;;;;;5.70;2.83;;;;;;;13.67;66.01;98717.25;2617977;49;20034;-68
2021/10/02 06:11:18;;;;;;;4.05;2.20;;;;;;;13.70;65.93;98719.50;2618096;47;20046;-69
2021/10/02 06:13:49;;;;;;;6.25;2.28;;;;;;;13.72;66.09;98721.94;2618094;54;20026;-68
2021/10/02 06:16:21;;;;;;;2.97;2.10;;;;;;;13.74;65.66;98723.34;2618244;54;20030;-68
2021/10/02 06:18:51;;;;;;;1.75;1.33;;;;;;;13.75;65.69;98726.81;2618083;54;20045;-68
2021/10/02 06:21:21;;;;;;;3.47;2.33;;;;;;;13.73;65.62;98740.31;2617661;47;20034;-68
2021/10/02 06:23:51;;;;;;;6.85;2.55;;;;;;;13.73;65.76;98732.34;2617774;54;20049;-69
2021/10/02 06:26:20;;;;;;;5.35;2.10;;;;;;;13.65;65.84;98739.75;2618325;54;20034;-67
2021/10/02 06:28:50;;;;;;;3.65;2.03;;;;;;;13.60;65.70;98737.75;2617797;47;20035;-68
2021/10/02 06:31:23;;;;;;;3.92;2.38;;;;;;;13.58;65.69;98737.13;2617309;47;20026;-68
2021/10/02 06:33:53;;;;;;;3.15;2.13;;;;;;;13.59;65.93;98733.44;2617071;46;20022;-68
2021/10/02 06:36:22;;;;;;;7.93;4.00;;;;;;;13.61;65.89;98740.19;2617506;54;20035;-68
2021/10/02 06:38:52;;;;;;;5.82;2.10;;;;;;;13.67;65.64;98735.03;2617952;54;20098;-68
2021/10/02 06:41:22;;;;;;;3.97;2.13;;;;;;;13.77;65.21;98724.78;2617956;39;20426;-67
2021/10/02 06:43:52;;;;;;;5.03;2.45;;;;;;;13.80;65.63;98725.16;2618362;54;20034;-67
2021/10/02 06:46:29;;;;;;;4.15;1.85;;;;;;;13.84;65.26;98721.03;2620802;54;20037;-67
2021/10/02 06:48:58;;;;;;;4.50;2.80;;;;;;;13.94;65.23;98728.53;2620245;39;20411;-67
2021/10/02 06:51:28;;;;;;;7.82;5.47;;;;;;;14.02;64.94;98728.25;2619377;47;20033;-68
2021/10/02 06:53:58;;;;;;;2.35;2.00;;;;;;;14.05;64.91;98727.03;2622189;54;20568;-69
2021/10/02 06:56:27;;;;;;;3.70;2.20;;;;;;;14.07;65.08;98727.59;2619679;54;20051;-68
2021/10/02 06:58:57;;;;;;;3.15;2.42;;;;;;;14.15;64.89;98716.69;2622709;54;20043;-70
2021/10/02 07:01:29;;;;;;;4.35;2.42;;;;;;;14.29;64.90;98728.84;2624417;54;20030;-69
2021/10/02 07:04:00;;;;;;;3.90;2.55;;;;;;;14.40;64.80;98739.81;2623072;54;20031;-70
2021/10/02 07:06:42;;;;;;;2.22;1.70;;;;;;;14.57;64.12;98743.53;2623003;54;20047;-70
2021/10/02 07:09:12;;;;;;;5.35;2.75;;;;;;;14.72;63.60;98735.22;2622478;54;20038;-68
2021/10/02 07:11:42;;;;;;;5.55;3.42;;;;;;;14.81;63.51;98733.88;2622918;54;20038;-69
2021/10/02 07:14:11;;;;;;;2.97;2.08;;;;;;;14.87;62.90;98733.03;2623016;54;20067;-70
2021/10/02 07:16:43;;;;;;;3.30;1.88;;;;;;;14.79;62.97;98736.78;2622342;47;20025;-70
2021/10/02 07:19:13;;;;;;;4.95;2.17;;;;;;;14.86;62.94;98742.84;2623261;54;20034;-70
2021/10/02 07:21:43;;;;;;;5.97;2.28;;;;;;;15.03;62.82;98739.59;2622657;51;20031;-70
2021/10/02 07:24:15;;;;;;;2.20;1.52;;;;;;;15.22;61.70;98740.38;2622259;47;20034;-70
2021/10/02 07:26:46;;;;;;;3.25;1.88;;;;;;;15.36;61.65;98731.19;2622928;54;20035;-70
2021/10/02 07:29:16;;;;;;;5.13;2.67;;;;;;;15.56;61.33;98722.94;2622327;54;20035;-70
2021/10/02 07:31:49;;;;;;;5.50;1.70;;;;;;;15.67;60.44;98729.34;2622346;54;20034;-70
2021/10/02 07:34:19;;;;;;;6.13;3.05;;;;;;;15.77;60.38;98717.13;2623369;54;20039;-70
2021/10/02 07:36:49;;;;;;;5.10;1.80;;;;;;;15.90;60.30;98723.28;2623508;54;20031;-70
2021/10/02 07:39:19;;;;;;;3.47;2.03;;;;;;;15.94;59.58;98713.78;2622804;47;20590;-70
2021/10/02 07:41:50;;;;;;;4.40;1.90;;;;;;;16.00;59.73;98710.19;2623266;54;20027;-69
2021/10/02 07:44:22;;;;;;;3.88;2.10;;;;;;;16.07;59.31;98708.25;2622914;54;20126;-69
2021/10/02 07:46:56;;;;;;;3.17;1.58;;;;;;;16.14;58.56;98708.13;2623483;54;20027;-69
2021/10/02 07:49:29;;;;;;;4.03;1.80;;;;;;;16.25;58.15;98704.69;2623211;54;20034;-69
2021/10/02 07:51:59;;;;;;;1.77;1.20;;;;;;;16.37;57.37;98702.81;2623485;54;20037;-69
2021/10/02 07:54:29;;;;;;;4.00;1.65;;;;;;;16.43;57.19;98704.53;2623304;54;20034;-69
2021/10/02 07:57:00;;;;;;;3.88;1.83;;;;;;;16.45;57.33;98702.47;2624577;54;20763;-69
2021/10/02 07:59:30;;;;;;;3.00;1.48;;;;;;;16.51;57.20;98692.72;2624151;50;20061;-69
2021/10/02 08:02:02;;;;;;;4.22;2.25;;;;;;;16.59;56.80;98703.03;2625316;39;20446;-69
2021/10/02 08:04:32;;;;;;;6.00;3.33;;;;;;;16.66;56.51;98701.06;2623235;54;20041;-69
2021/10/02 08:07:04;;;;;;;4.68;2.65;;;;;;;16.69;56.71;98702.44;2623428;39;20458;-70
2021/10/02 08:09:34;;;;;;;5.70;1.65;;;;;;;16.61;56.34;98703.59;2622118;54;20034;-70
2021/10/02 08:12:04;;;;;;;2.85;1.60;;;;;;;16.55;56.42;98705.34;2622977;54;20031;-72
2021/10/02 08:14:33;;;;;;;4.18;2.03;;;;;;;16.55;56.43;98702.69;2622555;51;20027;-70
2021/10/02 08:17:08;;;;;;;11.73;1.85;;;;;;;16.67;56.25;98705.34;2623820;54;20014;-71
2021/10/02 08:19:39;;;;;;;3.22;1.45;;;;;;;16.74;56.57;98706.06;2623024;54;20030;-71
2021/10/02 08:22:10;;;;;;;2.88;1.90;;;;;;;16.95;56.04;98698.47;2623388;47;20022;-70
2021/10/02 08:24:41;;;;;;;4.47;1.88;;;;;;;17.04;56.07;98697.06;2623371;47;20026;-71
2021/10/02 08:27:12;;;;;;;3.38;2.28;;;;;;;17.13;56.06;98700.16;2623945;54;20038;-71
2021/10/02 08:29:43;;;;;;;4.75;2.45;;;;;;;17.28;55.16;98690.59;2623270;47;20062;-71
2021/10/02 08:32:16;;;;;;;1.55;1.42;;;;;;;17.29;54.97;98689.53;2622665;47;20051;-70
2021/10/02 08:34:46;;;;;;;6.72;2.20;;;;;;;17.19;55.59;98700.03;2623506;54;20033;-71
2021/10/02 08:37:15;;;;;;;3.38;2.10;;;;;;;17.14;55.57;98691.91;2621365;54;20063;-71
2021/10/02 08:39:45;;;;;;;3.35;2.00;;;;;;;17.18;55.80;98687.69;2620938;39;20469;-69
2021/10/02 08:42:15;;;;;;;5.05;1.92;;;;;;;17.18;55.54;98681.56;2618878;47;20046;-68
2021/10/02 08:44:45;;;;;;;6.05;2.17;;;;;;;17.21;55.73;98673.88;2619773;54;20046;-69
2021/10/02 08:47:19;;;;;;;5.05;2.75;;;;;;;17.25;55.48;98677.69;2619949;54;20023;-69
2021/10/02 08:49:49;;;;;;;;;;;;;;;17.27;55.59;98666.78;2620565;54;20049;-70
2021/10/02 08:52:23;;;;;;;6.32;1.90;;;;;;;17.39;55.70;98659.53;2623498;54;20453;-69
2021/10/02 08:54:54;;;;;;;;;;;;;;;17.34;55.56;98654.88;2623616;54;20035;-70
2021/10/02 08:57:25;;;;;;;3.22;1.80;;;;;;;17.34;55.38;98652.19;2622962;54;19954;-69
2021/10/02 08:59:56;;;;;;;3.28;1.50;;;;;;;17.38;55.23;98657.06;2623157;39;20686;-69
2021/10/02 09:02:29;;;;;;;6.32;1.70;;;;;;;17.46;55.22;98648.66;2620874;54;20141;-70
2021/10/02 09:04:59;;;;;;;3.15;1.70;;;;;;;17.52;55.56;98648.53;2620645;54;20569;-68
2021/10/02 09:07:28;;;;;;;4.38;2.08;;;;;;;17.58;54.87;98647.53;2619919;47;20022;-69
2021/10/02 09:10:01;;;;;;;2.92;1.83;;;;;;;17.63;55.17;98644.16;2620059;47;20860;-69
2021/10/02 09:12:32;;;;;;;2.05;1.55;;;;;;;17.74;54.97;98648.66;2623032;54;20034;-69
2021/10/02 09:15:03;;;;;;;3.38;2.08;;;;;;;17.92;55.14;98642.25;2621474;54;20035;-70
2021/10/02 09:17:35;;;;;;;3.72;1.75;;;;;;;18.11;54.46;98631.28;2619882;47;20030;-69
2021/10/02 09:20:06;;;;;;;4.50;1.60;;;;;;;18.19;54.54;98633.53;2620290;54;20038;-69
2021/10/02 09:22:36;;;;;;;2.42;1.60;;;;;;;18.29;54.06;98625.69;2622446;54;20058;-69
2021/10/02 09:25:09;;;;;;;4.40;1.90;;;;;;;18.42;53.87;98621.81;2623104;54;20034;-68
2021/10/02 09:27:39;;;;;;;5.35;1.73;;;;;;;18.55;53.73;98622.25;2622628;54;20042;-70
2021/10/02 09:30:11;;;;;;;2.03;1.75;;;;;;;18.70;53.60;98627.03;2621750;47;20030;-69
2021/10/02 09:32:47;;;;;;;3.63;1.42;;;;;;;18.77;53.52;98627.63;2621569;54;20328;-69
2021/10/02 09:35:19;;;;;;;5.80;1.77;;;;;;;18.65;53.59;98626.91;2622205;54;20042;-69
2021/10/02 09:37:55;;;;;;;2.40;1.60;;;;;;;18.61;53.82;98627.66;2623662;54;20042;-69
2021/10/02 09:40:28;;;;;;;2.90;1.60;;;;;;;18.60;53.90;98632.22;2623461;39;20427;-70
2021/10/02 09:43:00;;;;;;;4.82;1.77;;;;;;;18.61;53.69;98622.31;2624049;39;20410;-71
2021/10/02 09:45:32;;;;;;;2.35;1.50;;;;;;;18.57;53.40;98624.69;2623522;39;20453;-71
2021/10/02 09:48:08;;;;;;;2.15;1.30;;;;;;;18.56;53.44;98610.50;2623014;54;20038;-71
2021/10/02 09:50:43;;;;;;;2.40;1.30;;;;;;;18.63;53.28;98601.47;2622816;54;20038;-70
2021/10/02 09:53:14;;;;;;;6.45;1.20;;;;;;;18.65;53.43;98604.69;2626851;39;20418;-71
2021/10/02 09:55:46;;;;;;;3.28;1.40;;;;;;;18.78;53.32;98594.47;2624769;39;20096;-70
2021/10/02 09:58:18;;;;;;;1.65;1.45;;;;;;;18.94;53.01;98586.56;2622901;47;20022;-71
2021/10/02 10:00:50;;;;;;;4.28;2.08;;;;;;;19.03;52.30;98590.44;2623158;54;20537;-71
2021/10/02 10:03:22;;;;;;;1.85;1.50;;;;;;;18.99;52.33;98586.66;2623885;39;20465;-69
2021/10/02 10:05:54;;;;;;;3.57;1.50;;;;;;;19.08;51.73;98579.78;2623489;54;20026;-70
2021/10/02 10:08:26;;;;;;;2.28;1.50;;;;;;;19.05;51.89;98580.28;2622804;47;20054;-71
2021/10/02 10:11:08;;;;;;;6.70;2.60;;;;;;;19.12;52.30;98580.06;2622358;47;20031;-71
2021/10/02 10:13:39;;;;;;;3.80;1.60;;;;;;;19.21;52.06;98584.72;2621854;54;20034;-73
2021/10/02 10:16:09;;;;;;;3.42;1.40;;;;;;;19.32;51.67;98572.22;2621198;54;20015;-69
2021/10/02 10:18:42;;;;;;;2.55;1.90;;;;;;;19.36;51.31;98567.97;2623263;39;20698;-72
2021/10/02 10:21:14;;;;;;;4.25;2.15;;;;;;;19.39;51.24;98563.94;2621896;54;20030;-70
2021/10/02 10:23:46;;;;;;;2.03;1.20;;;;;;;19.37;51.31;98550.00;2622657;54;20034;-70
2021/10/02 10:26:18;;;;;;;2.60;1.58;;;;;;;19.39;51.24;98543.34;2621832;46;20038;-72
2021/10/02 10:28:49;;;;;;;2.70;1.40;;;;;;;19.34;50.71;98551.31;2622802;54;20101;-69
2021/10/02 10:31:22;;;;;;;3.05;1.30;;;;;;;19.36;51.27;98549.22;2622712;46;20038;-70
2021/10/02 10:33:56;;;;;;;2.43;1.30;;;;;;;19.59;50.82;98542.66;2622276;47;20633;-70
2021/10/02 10:36:28;;;;;;;1.95;1.42;;;;;;;19.71;50.05;98532.59;2622216;54;20541;-72
2021/10/02 10:38:58;;;;;;;1.45;1.02;;;;;;;19.76;49.67;98524.59;2623054;54;20031;-71
2021/10/02 10:41:28;;;;;;;2.53;1.27;;;;;;;19.91;49.97;98520.38;2623204;54;20118;-70
2021/10/02 10:44:00;;;;;;;1.92;1.20;;;;;;;19.99;49.88;98519.88;2622516;47;20041;-69
2021/10/02 10:46:30;;;;;;;2.45;1.25;;;;;;;20.04;49.65;98523.41;2622504;54;20034;-69
2021/10/02 10:49:03;;;;;;;2.22;1.35;;;;;;;20.22;49.65;98522.16;2623313;39;20429;-71
2021/10/02 10:51:34;;;;;;;2.60;1.58;;;;;;;20.34;48.70;98523.81;2622012;54;20027;-71
2021/10/02 10:54:04;;;;;;;2.35;1.38;;;;;;;20.45;48.50;98510.16;2621788;47;20026;-72
2021/10/02 10:56:43;;;;;;;3.00;1.17;;;;;;;20.70;46.99;98509.44;2621968;47;20031;-72
2021/10/02 10:59:18;;;;;;;3.35;1.60;;;;;;;20.77;46.90;98509.19;2622635;39;20441;-71
2021/10/02 11:01:50;;;;;;;2.53;1.05;;;;;;;20.82;45.78;98511.91;2622320;47;20023;-71
2021/10/02 11:04:39;;;;;;;3.10;1.00;;;;;;;20.75;46.11;98514.81;2621543;39;20410;-69
2021/10/02 11:07:13;;;;;;;7.35;1.10;;;;;;;20.82;45.30;98513.75;2622316;39;20684;-68
2021/10/02 11:09:45;;;;;;;3.08;1.02;;;;;;;20.72;45.69;98487.69;2622350;54;20042;-69
2021/10/02 11:12:15;;;;;;;1.58;1.10;;;;;;;20.73;45.39;98481.22;2621795;54;20037;-70
2021/10/02 11:15:02;;;;;;;1.40;1.10;;;;;;;20.76;45.77;98478.81;2620481;54;20046;-69
2021/10/02 11:17:49;;;;;;;1.80;1.00;;;;;;;20.83;45.59;98477.78;2620434;54;20227;-69
2021/10/02 11:20:39;;;;;;;0.77;0.77;;;;;;;20.69;45.35;98472.09;2620002;51;20526;-69
2021/10/02 11:23:54;;;;;;;3.47;1.10;;;;;;;20.64;45.59;98456.78;2620724;54;20038;-69
2021/10/02 11:26:25;;;;;;;;;;;;;;;20.65;45.58;98452.22;2621011;54;20066;-69
2021/10/02 11:29:21;;;;;;;2.58;1.20;;;;;;;20.70;45.22;98436.94;2620843;39;20337;-69
2021/10/02 11:31:52;;;;;;;2.13;1.20;;;;;;;20.75;45.52;98441.50;2620705;54;20030;-69
2021/10/02 11:34:24;;;;;;;1.67;1.20;;;;;;;20.75;45.14;98450.38;2620239;54;20118;-70
2021/10/02 11:36:59;;;;;;;1.52;1.20;;;;;;;20.72;45.70;98450.88;2620297;54;20045;-70
2021/10/02 11:39:34;;;;;;;1.38;1.10;;;;;;;20.53;45.48;98437.19;2618383;47;20034;-69
2021/10/02 11:42:14;;;;;;;2.70;1.20;;;;;;;20.38;46.17;98433.63;2618936;47;20022;-69
2021/10/02 11:44:48;;;;;;;1.92;1.23;;;;;;;20.40;46.22;98434.97;2618270;51;20057;-69
2021/10/02 11:47:35;;;;;;;1.58;1.00;;;;;;;20.47;46.42;98426.66;2618866;54;20573;-69
2021/10/02 11:50:32;;;;;;;1.40;1.20;;;;;;;20.55;46.40;98428.06;2619151;54;20042;-69
2021/10/02 11:53:23;;;;;;;3.05;1.23;;;;;;;20.60;45.61;98428.03;2620127;54;20578;-68
2021/10/02 11:55:53;;;;;;;1.40;1.00;;;;;;;20.57;46.23;98415.16;2620199;54;20082;-69
2021/10/02 11:58:24;;;;;;;1.85;1.00;;;;;;;20.63;45.75;98432.91;2620239;54;20031;-69
2021/10/02 12:00:58;;;;;;;2.83;1.10;;;;;;;20.62;45.40;98434.78;2620710;54;20022;-69
2021/10/02 12:03:29;;;;;;;3.80;1.10;;;;;;;20.59;45.18;98427.25;2620723;54;20029;-69
2021/10/02 12:06:01;;;;;;;1.60;1.17;;;;;;;20.48;45.29;98426.41;2621085;54;20039;-69
2021/10/02 12:08:35;;;;;;;2.03;1.08;;;;;;;20.46;45.23;98425.84;2620773;54;20550;-71
2021/10/02 12:11:08;;;;;;;1.88;1.35;;;;;;;20.53;45.73;98417.56;2621285;54;20038;-70
2021/10/02 12:13:39;;;;;;;2.43;1.23;;;;;;;20.61;45.50;98417.03;2620706;54;20031;-70
2021/10/02 12:16:11;;;;;;;3.75;1.67;;;;;;;20.79;45.50;98415.72;2620473;54;20294;-70
2021/10/02 12:18:55;;;;;;;1.63;1.40;;;;;;;20.84;45.63;98410.34;2620739;54;20034;-71
2021/10/02 12:21:32;;;;;;;4.22;1.40;;;;;;;21.06;45.48;98406.56;2620325;47;20045;-69
2021/10/02 12:24:10;;;;;;;1.50;1.10;;;;;;;21.07;44.39;98395.56;2619866;54;20027;-69
2021/10/02 12:26:43;;;;;;;2.78;1.50;;;;;;;21.24;43.93;98389.88;2620118;54;20041;-71
2021/10/02 12:29:17;;;;;;;1.88;1.20;;;;;;;21.32;43.63;98381.28;2618187;39;20860;-69
2021/10/02 12:32:08;;;;;;;1.85;1.17;;;;;;;21.33;43.28;98374.84;2620501;54;20022;-70
2021/10/02 12:34:41;;;;;;;2.03;1.42;;;;;;;21.38;42.79;98369.44;2620176;47;20550;-69
2021/10/02 12:37:14;;;;;;;1.85;1.05;;;;;;;21.43;42.51;98376.69;2620651;47;20035;-70
2021/10/02 12:39:49;;;;;;;1.10;1.00;;;;;;;21.29;42.22;98368.34;2621808;54;20034;-73
2021/10/02 12:46:42;;;;;;;4.40;1.10;;;;;;;21.11;43.17;98361.69;2619395;46;20038;-64
2021/10/02 12:49:13;;;;;;;1.17;0.98;;;;;;;21.15;43.15;98345.84;2619751;54;20113;-64
2021/10/02 12:51:44;;;;;;;2.90;1.00;;;;;;;21.19;43.01;98338.84;2619457;54;20026;-65
2021/10/02 12:54:16;;;;;;;2.08;1.20;;;;;;;21.30;43.18;98342.28;2619455;54;20026;-64
2021/10/02 12:57:06;;;;;;;0.88;0.80;;;;;;;21.35;42.77;98329.69;2619352;54;20798;-64